Time;durP1;ratioP1;P1;durP2;ratioP2;P2;SDS_P1;SDS_P2;PMS_P1;PMS_P2;Temp;Humidity;BMP_temperature;BMP_pressure;BME280_temperature;BME280_humidity;BME280_pressure;Samples;Min_cycle;Max_cycle;Signal;HPM_P1;HPM_P2
2023/01/01 00:01:17;;;;;;;27.55;19.38;;;;;;;11.28;100.00;102583.97;2076760;28;20041;-71
2023/01/01 00:02:40;;;;;;;18.90;14.40;;;;;;;11.23;100.00;102583.75;2071070;28;20300;-71
2023/01/01 00:04:02;;;;;;;18.95;13.30;;;;;;;11.22;100.00;102586.34;2075674;28;20107;-71
2023/01/01 00:05:24;;;;;;;19.67;14.15;;;;;;;11.21;100.00;102579.25;2072641;28;20030;-70
2023/01/01 00:06:47;;;;;;;24.08;17.08;;;;;;;11.20;100.00;102581.00;2085329;28;20501;-71
2023/01/01 00:08:09;;;;;;;16.65;12.45;;;;;;;11.19;100.00;102579.19;2077953;28;20048;-71
2023/01/01 00:11:11;;;;;;;25.20;17.20;;;;;;;11.16;100.00;102571.09;2081616;28;20034;-71
2023/01/01 00:12:35;;;;;;;24.00;17.27;;;;;;;11.15;100.00;102578.16;2078116;28;20050;-71
2023/01/01 00:13:58;;;;;;;22.85;15.77;;;;;;;11.11;100.00;102577.94;2084752;28;20107;-71
2023/01/01 00:15:20;;;;;;;17.30;12.52;;;;;;;11.05;100.00;102575.94;2075059;28;20057;-71
2023/01/01 00:16:43;;;;;;;17.02;11.18;;;;;;;10.98;100.00;102568.59;2078031;28;20061;-71
2023/01/01 00:18:06;;;;;;;16.45;11.48;;;;;;;10.95;100.00;102567.56;2085033;28;20057;-71
2023/01/01 00:19:28;;;;;;;15.50;11.18;;;;;;;10.94;100.00;102564.03;2079638;28;20033;-71
2023/01/01 00:20:51;;;;;;;14.98;10.55;;;;;;;10.96;100.00;102566.75;2086088;28;20052;-71
2023/01/01 00:22:14;;;;;;;15.77;10.77;;;;;;;10.98;100.00;102568.59;2086629;28;20405;-71
2023/01/01 00:23:36;;;;;;;16.88;11.48;;;;;;;10.99;100.00;102559.84;2078331;28;20093;-71
2023/01/01 00:24:59;;;;;;;15.70;11.25;;;;;;;11.02;100.00;102561.72;2076223;28;20049;-71
2023/01/01 00:26:21;;;;;;;15.75;10.93;;;;;;;11.03;100.00;102574.06;2078819;28;20072;-71
2023/01/01 00:27:45;;;;;;;17.85;12.07;;;;;;;11.04;100.00;102560.03;2072372;28;20502;-71
2023/01/01 00:29:07;;;;;;;40.78;25.13;;;;;;;11.02;100.00;102562.63;2083841;28;20159;-71
2023/01/01 00:30:30;;;;;;;52.63;34.25;;;;;;;10.99;100.00;102564.22;2087542;28;20051;-71
2023/01/01 00:31:52;;;;;;;38.92;25.95;;;;;;;10.98;100.00;102565.06;2085818;28;20045;-71
2023/01/01 00:33:14;;;;;;;23.90;17.02;;;;;;;10.98;100.00;102562.41;2086057;28;20045;-71
2023/01/01 00:34:37;;;;;;;20.45;14.82;;;;;;;10.99;100.00;102564.22;2086898;28;20051;-71
2023/01/01 00:36:06;;;;;;;34.95;25.50;;;;;;;10.99;100.00;102566.88;2092041;28;20048;-71
2023/01/01 00:37:29;;;;;;;28.83;19.83;;;;;;;10.95;100.00;102563.19;2085930;28;20391;-71
2023/01/01 00:38:52;;;;;;;17.27;12.65;;;;;;;10.93;100.00;102567.50;2076867;28;20467;-71
2023/01/01 00:40:15;;;;;;;16.95;12.52;;;;;;;10.93;100.00;102571.88;2079882;28;20614;-71
2023/01/01 00:41:37;;;;;;;23.30;15.52;;;;;;;10.91;100.00;102562.97;2083450;28;20509;-71
2023/01/01 00:43:01;;;;;;;17.42;12.85;;;;;;;10.90;100.00;102566.44;2087014;28;20041;-72
2023/01/01 00:44:23;;;;;;;19.63;13.15;;;;;;;10.88;100.00;102565.50;2080836;28;20048;-71
2023/01/01 00:45:47;;;;;;;16.52;11.13;;;;;;;10.87;100.00;102567.25;2087543;28;20049;-71
2023/01/01 00:47:08;;;;;;;15.52;10.85;;;;;;;10.89;100.00;102570.88;2079316;28;20053;-71
2023/01/01 00:48:31;;;;;;;18.77;11.57;;;;;;;10.90;100.00;102563.81;2081509;28;20514;-71
2023/01/01 00:49:53;;;;;;;18.20;13.40;;;;;;;10.93;100.00;102564.88;2088758;28;20045;-71
2023/01/01 00:51:15;;;;;;;18.83;13.48;;;;;;;10.94;100.00;102566.66;2078500;28;20658;-72
2023/01/01 00:52:38;;;;;;;17.05;12.02;;;;;;;10.92;100.00;102562.16;2079542;28;20041;-71
2023/01/01 00:54:00;;;;;;;16.77;11.75;;;;;;;10.88;100.00;102560.22;2080716;28;20065;-71
2023/01/01 00:55:23;;;;;;;18.55;12.10;;;;;;;10.84;100.00;102558.25;2079622;28;20049;-71
2023/01/01 00:56:44;;;;;;;15.50;11.02;;;;;;;10.82;100.00;102560.88;2082378;28;20107;-71
2023/01/01 00:58:08;;;;;;;14.90;10.57;;;;;;;10.79;100.00;102560.72;2079679;28;20048;-71
2023/01/01 00:59:30;;;;;;;14.52;10.23;;;;;;;10.80;100.00;102557.25;2070219;28;20042;-71
2023/01/01 01:00:52;;;;;;;17.98;10.70;;;;;;;10.87;100.00;102556.69;2080720;28;20041;-71
2023/01/01 01:02:15;;;;;;;16.05;10.80;;;;;;;10.94;100.00;102550.81;2078192;28;20103;-72
2023/01/01 01:03:38;;;;;;;17.35;10.50;;;;;;;11.04;100.00;102553.00;2086140;28;20041;-71
2023/01/01 01:05:02;;;;;;;14.50;10.15;;;;;;;11.09;100.00;102554.09;2078591;28;20072;-72
2023/01/01 01:06:24;;;;;;;17.75;11.90;;;;;;;11.17;100.00;102552.69;2078092;28;20048;-71
2023/01/01 01:07:47;;;;;;;19.67;13.77;;;;;;;11.21;100.00;102552.81;2087637;28;20147;-71
2023/01/01 01:09:09;;;;;;;20.52;12.95;;;;;;;11.24;100.00;102555.56;2078086;28;20052;-71
2023/01/01 01:10:31;;;;;;;21.35;13.52;;;;;;;11.27;100.00;102561.00;2087512;28;20574;-71
2023/01/01 01:11:54;;;;;;;21.27;15.05;;;;;;;11.30;100.00;102559.38;2088922;28;20052;-71
2023/01/01 01:13:17;;;;;;;18.63;13.15;;;;;;;11.33;100.00;102558.63;2086001;28;20041;-71
2023/01/01 01:14:39;;;;;;;18.73;13.77;;;;;;;11.34;100.00;102549.84;2079004;28;20061;-71
2023/01/01 01:16:01;;;;;;;18.00;12.05;;;;;;;11.36;100.00;102554.34;2079840;28;20099;-71
2023/01/01 01:17:23;;;;;;;15.32;11.20;;;;;;;11.34;100.00;102548.09;2081932;28;20045;-71
2023/01/01 01:18:46;;;;;;;18.58;14.40;;;;;;;11.30;100.00;102546.16;2078132;28;20049;-71
2023/01/01 01:20:09;;;;;;;20.60;14.88;;;;;;;11.26;100.00;102554.81;2084408;28;20037;-71
2023/01/01 01:21:33;;;;;;;17.83;12.57;;;;;;;11.24;100.00;102551.19;2080620;28;20045;-72
2023/01/01 01:22:55;;;;;;;15.18;11.60;;;;;;;11.22;100.00;102552.91;2086576;28;20048;-72
2023/01/01 01:24:18;;;;;;;16.73;10.10;;;;;;;11.21;100.00;102556.38;2080623;28;20061;-71
2023/01/01 01:25:40;;;;;;;17.58;11.90;;;;;;;11.23;100.00;102545.84;2083042;28;20045;-71
2023/01/01 01:27:02;;;;;;;18.10;11.57;;;;;;;11.27;100.00;102542.50;2077425;28;20053;-71
2023/01/01 01:28:26;;;;;;;15.98;10.65;;;;;;;11.34;100.00;102541.91;2080310;28;20055;-71
2023/01/01 01:29:48;;;;;;;15.88;11.10;;;;;;;11.41;100.00;102551.91;2083152;28;20060;-71
2023/01/01 01:31:10;;;;;;;19.42;12.35;;;;;;;11.49;100.00;102546.06;2083112;28;20037;-71
2023/01/01 01:32:32;;;;;;;17.35;12.00;;;;;;;11.56;100.00;102541.91;2075726;28;20057;-71
2023/01/01 01:33:53;;;;;;;17.73;12.30;;;;;;;11.59;100.00;102542.97;2077516;28;20050;-71
2023/01/01 01:35:16;;;;;;;15.65;11.23;;;;;;;11.60;100.00;102546.53;2080391;28;20064;-72
2023/01/01 01:36:39;;;;;;;15.85;10.98;;;;;;;11.57;100.00;102536.69;2082973;28;20602;-71
2023/01/01 01:38:02;;;;;;;15.63;10.75;;;;;;;11.54;100.00;102538.34;2092866;28;20045;-71
2023/01/01 01:39:24;;;;;;;14.95;11.10;;;;;;;11.48;100.00;102536.34;2066570;28;20043;-71
2023/01/01 01:40:47;;;;;;;13.27;9.90;;;;;;;11.46;100.00;102537.13;2075088;28;20041;-71
2023/01/01 01:42:17;;;;;;;13.05;9.95;;;;;;;11.45;100.00;102522.09;2086112;28;20049;-71
2023/01/01 01:43:52;;;;;;;14.25;10.50;;;;;;;11.45;100.00;102524.72;2081521;28;20417;-72
2023/01/01 01:45:16;;;;;;;14.93;9.88;;;;;;;11.43;100.00;102527.31;2094004;28;20123;-71
2023/01/01 01:46:43;;;;;;;14.15;9.50;;;;;;;11.39;100.00;102524.50;2085970;28;20480;-71
2023/01/01 01:48:06;;;;;;;14.77;9.30;;;;;;;11.38;100.00;102522.69;2080798;28;20044;-71
2023/01/01 01:49:32;;;;;;;14.45;10.27;;;;;;;11.36;100.00;102525.25;2078499;28;20041;-71
2023/01/01 01:50:55;;;;;;;12.73;9.65;;;;;;;11.37;100.00;102523.50;2081736;28;20373;-71
2023/01/01 01:52:18;;;;;;;13.95;9.93;;;;;;;11.39;100.00;102513.91;2078013;28;20058;-71
2023/01/01 01:53:45;;;;;;;13.85;9.57;;;;;;;11.42;100.00;102519.34;2077847;28;20049;-71
2023/01/01 01:55:09;;;;;;;17.55;15.02;;;;;;;11.44;100.00;102515.00;2087780;28;20152;-71
2023/01/01 01:56:39;;;;;;;16.95;12.82;;;;;;;11.48;100.00;102517.84;2084947;28;20344;-71
2023/01/01 01:58:00;;;;;;;44.00;39.47;;;;;;;11.50;100.00;102512.59;2085523;28;20501;-71
2023/01/01 01:59:27;;;;;;;26.30;23.23;;;;;;;11.54;100.00;102512.78;2086010;28;20444;-71
2023/01/01 02:00:50;;;;;;;17.02;13.82;;;;;;;11.58;100.00;102509.41;2078383;28;20131;-71
2023/01/01 02:02:20;;;;;;;18.27;14.48;;;;;;;11.64;100.00;102508.75;2087230;28;20048;-71
2023/01/01 02:03:48;;;;;;;19.05;16.35;;;;;;;11.66;100.00;102507.06;2086810;28;20564;-71
2023/01/01 02:05:09;;;;;;;16.45;13.02;;;;;;;11.69;100.00;102511.56;2082622;28;20220;-71
2023/01/01 02:06:35;;;;;;;18.17;14.55;;;;;;;11.72;100.00;102509.97;2084747;28;20048;-71
2023/01/01 02:07:58;;;;;;;17.65;13.90;;;;;;;11.74;100.00;102508.31;2081170;28;20045;-71
2023/01/01 02:09:21;;;;;;;16.70;12.35;;;;;;;11.76;100.00;102508.34;2089692;28;20097;-71
2023/01/01 02:10:44;;;;;;;15.63;11.52;;;;;;;11.74;100.00;102503.03;2080172;28;20081;-71
2023/01/01 02:12:06;;;;;;;19.30;12.40;;;;;;;11.75;100.00;102506.59;2091462;28;20143;-71
2023/01/01 02:13:29;;;;;;;17.27;11.48;;;;;;;11.73;100.00;102506.47;2072027;28;20042;-71
2023/01/01 02:14:53;;;;;;;16.05;10.30;;;;;;;11.74;100.00;102502.13;2085119;28;20099;-71
2023/01/01 02:16:22;;;;;;;13.98;9.73;;;;;;;11.71;100.00;102496.66;2088328;28;20056;-71
2023/01/01 02:17:54;;;;;;;13.55;9.75;;;;;;;11.71;100.00;102499.31;2085536;28;20117;-71
2023/01/01 02:19:23;;;;;;;13.38;9.52;;;;;;;11.72;100.00;102503.75;2087416;28;20053;-71
2023/01/01 02:20:52;;;;;;;14.38;9.82;;;;;;;11.72;100.00;102502.03;2086625;28;20107;-71
2023/01/01 02:22:17;;;;;;;13.38;9.10;;;;;;;11.74;100.00;102499.47;2083736;28;20060;-71
2023/01/01 02:24:20;;;;;;;18.65;12.23;;;;;;;11.74;100.00;102504.78;2093900;28;20060;-72
2023/01/01 02:25:58;;;;;;;19.98;13.07;;;;;;;11.74;100.00;102504.78;2093966;28;20048;-71
2023/01/01 02:27:31;;;;;;;21.02;13.90;;;;;;;11.76;100.00;102500.41;2082828;28;20583;-71
2023/01/01 02:29:03;;;;;;;18.83;13.02;;;;;;;11.75;100.00;102494.22;2070988;28;20391;-71
2023/01/01 02:30:27;;;;;;;17.58;11.13;;;;;;;11.76;100.00;102501.31;2079354;28;20702;-71
2023/01/01 02:31:56;;;;;;;15.10;10.60;;;;;;;11.80;100.00;102497.06;2086142;28;20060;-71
2023/01/01 02:33:22;;;;;;;18.60;11.52;;;;;;;11.84;100.00;102496.31;2070371;28;20936;-71
2023/01/01 02:34:50;;;;;;;14.75;10.50;;;;;;;11.84;100.00;102499.88;2077067;28;20057;-71
2023/01/01 02:36:13;;;;;;;14.35;10.88;;;;;;;11.87;100.00;102496.47;2078381;28;20052;-71
2023/01/01 02:37:36;;;;;;;15.63;11.27;;;;;;;11.91;100.00;102501.00;2075398;28;20103;-71
2023/01/01 02:39:00;;;;;;;16.05;11.20;;;;;;;11.94;100.00;102493.22;2111260;27;20974;-72
2023/01/01 02:40:25;;;;;;;16.20;11.68;;;;;;;11.94;100.00;102495.84;2100739;28;20075;-72
2023/01/01 02:41:51;;;;;;;15.23;9.93;;;;;;;11.95;100.00;102495.88;2098681;28;20047;-72
2023/01/01 02:43:13;;;;;;;13.63;9.52;;;;;;;11.98;100.00;102489.81;2094345;28;20583;-72
2023/01/01 02:44:40;;;;;;;12.68;9.80;;;;;;;12.00;100.00;102485.50;2098471;28;20080;-72
2023/01/01 02:46:07;;;;;;;13.90;9.75;;;;;;;12.04;100.00;102494.44;2105954;28;20136;-72
2023/01/01 02:47:29;;;;;;;12.60;9.80;;;;;;;12.05;100.00;102491.84;2100249;28;20147;-73
2023/01/01 02:48:53;;;;;;;14.00;10.38;;;;;;;12.08;100.00;102484.00;2114404;28;20054;-73
2023/01/01 02:50:19;;;;;;;13.60;10.10;;;;;;;12.08;100.00;102486.66;2110219;28;20054;-73
2023/01/01 02:51:51;;;;;;;12.85;10.05;;;;;;;12.10;100.00;102492.00;2092924;28;20049;-74
2023/01/01 02:53:27;;;;;;;16.63;10.80;;;;;;;12.11;100.00;102497.38;2103758;28;20056;-75
2023/01/01 02:55:02;;;;;;;22.40;15.45;;;;;;;12.12;100.00;102495.63;2103619;28;20469;-74
2023/01/01 02:56:33;;;;;;;33.58;14.55;;;;;;;12.09;100.00;102504.34;2107467;28;20518;-75
2023/01/01 03:00:18;;;;;;;81.75;17.17;;;;;;;12.00;100.00;102497.81;2104217;28;20052;-75
2023/01/01 03:00:18;;;;;;;39.25;17.13;;;;;;;11.78;100.00;102491.72;2105037;28;20515;-77
2023/01/01 03:01:46;;;;;;;24.85;14.90;;;;;;;11.65;100.00;102502.63;2103194;28;20072;-79
2023/01/01 03:03:19;;;;;;;23.70;13.38;;;;;;;11.61;100.00;102497.16;2109353;28;20036;-79
2023/01/01 03:04:54;;;;;;;19.98;11.77;;;;;;;11.54;100.00;102496.94;2095171;28;20091;-80
2023/01/01 03:06:25;;;;;;;21.83;12.95;;;;;;;11.49;100.00;102498.47;2102348;28;20067;-80
2023/01/01 03:08:03;;;;;;;21.73;13.10;;;;;;;11.51;100.00;102509.09;2096582;28;20048;-81
2023/01/01 03:09:36;;;;;;;23.65;17.17;;;;;;;11.54;100.00;102512.78;2094361;28;20045;-83
2023/01/01 03:11:04;;;;;;;23.50;15.07;;;;;;;11.56;100.00;102519.03;2110221;28;20160;-83
2023/01/01 03:12:41;;;;;;;23.17;14.80;;;;;;;11.55;100.00;102519.00;2103670;28;20074;-84
2023/01/01 03:14:08;;;;;;;22.95;15.20;;;;;;;11.51;100.00;102523.25;2111825;28;20044;-84
2023/01/01 03:15:40;;;;;;;24.20;16.45;;;;;;;11.53;100.00;102520.66;2096638;28;20044;-85
2023/01/01 03:17:07;;;;;;;20.05;14.88;;;;;;;11.54;100.00;102519.81;2100847;28;20105;-85
2023/01/01 03:18:37;;;;;;;21.95;15.48;;;;;;;11.59;100.00;102518.25;2093473;28;20489;-85
2023/01/01 03:20:05;;;;;;;21.40;13.55;;;;;;;11.62;100.00;102521.00;2104653;28;20080;-85
2023/01/01 03:21:26;;;;;;;23.23;14.63;;;;;;;11.64;100.00;102527.28;2102168;28;20048;-86
2023/01/01 03:22:51;;;;;;;19.85;12.95;;;;;;;11.64;100.00;102529.91;2109239;28;20052;-86
2023/01/01 03:24:21;;;;;;;21.50;13.02;;;;;;;11.66;100.00;102525.59;2103885;28;20155;-86
2023/01/01 03:25:48;;;;;;;24.45;14.38;;;;;;;11.69;100.00;102533.63;2095636;28;20048;-87
2023/01/01 03:27:17;;;;;;;21.42;14.38;;;;;;;11.70;100.00;102537.19;2108084;28;20097;-88
2023/01/01 03:28:43;;;;;;;21.73;14.10;;;;;;;11.72;100.00;102528.47;2095653;28;20083;-87
2023/01/01 03:30:09;;;;;;;21.80;14.35;;;;;;;11.74;100.00;102536.53;2102973;28;20059;-87
2023/01/01 03:31:33;;;;;;;21.23;13.18;;;;;;;11.74;100.00;102533.88;2104606;28;20052;-88
2023/01/01 03:33:00;;;;;;;24.58;15.15;;;;;;;11.73;100.00;102532.94;2106727;28;20075;-87
2023/01/01 03:34:28;;;;;;;26.33;16.00;;;;;;;11.73;100.00;102538.22;2101803;28;20043;-87
2023/01/01 03:35:52;;;;;;;22.38;13.77;;;;;;;11.75;100.00;102536.56;2105821;28;20046;-87
2023/01/01 03:37:25;;;;;;;21.85;14.60;;;;;;;11.78;100.00;102536.69;2103096;28;20420;-87
2023/01/01 03:38:51;;;;;;;21.38;13.60;;;;;;;11.78;100.00;102530.50;2102154;28;20052;-87
2023/01/01 03:40:13;;;;;;;19.35;13.27;;;;;;;11.77;100.00;102533.97;2109559;28;20055;-87
2023/01/01 03:41:39;;;;;;;19.10;13.15;;;;;;;11.78;100.00;102530.50;2109446;28;20488;-86
2023/01/01 03:43:09;;;;;;;20.60;13.93;;;;;;;11.77;100.00;102532.22;2111793;28;20040;-86
2023/01/01 03:44:34;;;;;;;17.95;12.55;;;;;;;11.75;100.00;102533.91;2098964;28;20041;-86
2023/01/01 03:45:59;;;;;;;19.70;13.45;;;;;;;11.74;100.00;102537.44;2100175;28;20055;-86
2023/01/01 03:47:22;;;;;;;22.35;15.25;;;;;;;11.77;100.00;102542.81;2107443;28;20400;-85
2023/01/01 03:48:55;;;;;;;22.33;13.63;;;;;;;11.77;100.00;102537.53;2103924;28;20101;-85
2023/01/01 03:50:20;;;;;;;29.15;19.02;;;;;;;11.82;100.00;102532.41;2097340;28;20500;-85
2023/01/01 03:52:00;;;;;;;41.00;29.25;;;;;;;11.83;100.00;102537.75;2096021;28;20041;-85
2023/01/01 03:53:36;;;;;;;25.40;18.70;;;;;;;11.83;100.00;102532.47;2098076;28;20157;-85
2023/01/01 03:55:06;;;;;;;21.85;14.25;;;;;;;11.84;100.00;102529.00;2090136;28;20049;-85
2023/01/01 03:56:35;;;;;;;24.35;15.27;;;;;;;11.86;100.00;102539.63;2104816;28;20054;-85
2023/01/01 03:58:03;;;;;;;26.15;17.90;;;;;;;11.89;100.00;102542.38;2098614;28;20055;-86
2023/01/01 03:59:34;;;;;;;24.02;17.15;;;;;;;11.91;100.00;102549.56;2104393;28;20044;-86
2023/01/01 04:01:04;;;;;;;23.95;18.00;;;;;;;11.90;100.00;102539.81;2096547;28;20388;-86
2023/01/01 04:02:31;;;;;;;25.08;18.25;;;;;;;11.91;100.00;102538.97;2089332;28;20470;-86
2023/01/01 04:03:54;;;;;;;32.63;24.10;;;;;;;11.90;100.00;102545.09;2096046;28;20048;-85
2023/01/01 04:05:17;;;;;;;21.63;14.43;;;;;;;11.90;100.00;102539.81;2096853;28;20107;-86
2023/01/01 04:06:40;;;;;;;23.65;16.08;;;;;;;11.90;100.00;102545.09;2087160;28;20468;-85
2023/01/01 04:08:04;;;;;;;18.92;13.77;;;;;;;11.90;100.00;102547.75;2095465;28;20491;-82
2023/01/01 04:09:32;;;;;;;25.25;16.00;;;;;;;11.89;100.00;102548.59;2112703;28;20044;-82
2023/01/01 04:10:59;;;;;;;22.30;16.70;;;;;;;11.88;100.00;102551.19;2105721;28;20535;-84
2023/01/01 04:12:20;;;;;;;28.10;17.92;;;;;;;11.85;100.00;102553.72;2104307;28;20082;-84
2023/01/01 04:13:47;;;;;;;18.77;13.60;;;;;;;11.83;100.00;102551.00;2087659;28;20036;-84
2023/01/01 04:15:11;;;;;;;18.55;12.85;;;;;;;11.81;100.00;102554.44;2087857;28;20064;-83
2023/01/01 04:16:32;;;;;;;16.33;10.93;;;;;;;11.76;100.00;102554.25;2095463;28;20044;-83
2023/01/01 04:17:55;;;;;;;18.65;11.85;;;;;;;11.73;100.00;102556.75;2095782;28;20060;-83
2023/01/01 04:19:16;;;;;;;21.38;12.70;;;;;;;11.71;100.00;102546.94;2103445;28;20040;-84
2023/01/01 04:20:38;;;;;;;20.00;13.23;;;;;;;11.68;100.00;102558.31;2105738;28;20130;-83
2023/01/01 04:22:00;;;;;;;24.13;15.57;;;;;;;11.67;100.00;102552.97;2095210;28;20040;-83
2023/01/01 04:23:22;;;;;;;25.50;15.63;;;;;;;11.64;100.00;102564.31;2091870;28;20186;-83
2023/01/01 04:24:43;;;;;;;26.95;19.48;;;;;;;11.63;100.00;102551.91;2103119;28;20073;-82
2023/01/01 04:26:06;;;;;;;23.67;16.10;;;;;;;11.63;100.00;102554.56;2090268;28;20107;-83
2023/01/01 04:27:27;;;;;;;26.13;16.48;;;;;;;11.64;100.00;102558.09;2092382;28;20032;-82
2023/01/01 04:28:50;;;;;;;24.58;14.50;;;;;;;11.63;100.00;102549.28;2099900;28;20044;-81
2023/01/01 04:30:15;;;;;;;24.73;15.52;;;;;;;11.65;100.00;102547.59;2094028;28;20059;-82
2023/01/01 04:31:36;;;;;;;27.17;18.75;;;;;;;11.65;100.00;102547.59;2103573;28;20063;-82
2023/01/01 04:32:58;;;;;;;26.15;18.50;;;;;;;11.63;100.00;102554.56;2102705;28;20043;-81
2023/01/01 04:34:21;;;;;;;25.90;17.45;;;;;;;11.62;100.00;102551.88;2105879;28;20090;-81
2023/01/01 04:35:42;;;;;;;25.15;15.52;;;;;;;11.61;100.00;102550.97;2095989;28;20107;-82
2023/01/01 04:37:04;;;;;;;21.45;13.40;;;;;;;11.58;100.00;102558.78;2094986;28;20060;-81
2023/01/01 04:38:25;;;;;;;22.50;13.85;;;;;;;11.54;100.00;102548.91;2089163;28;20053;-81
2023/01/01 04:39:48;;;;;;;18.98;12.68;;;;;;;11.49;100.00;102554.00;2087312;28;20044;-81
2023/01/01 04:41:10;;;;;;;17.27;11.38;;;;;;;11.46;100.00;102553.00;2103468;28;20043;-81
2023/01/01 04:42:32;;;;;;;16.48;11.50;;;;;;;11.42;100.00;102551.94;2098894;28;20064;-81
2023/01/01 04:43:53;;;;;;;20.90;13.60;;;;;;;11.41;100.00;102557.19;2106152;28;20052;-81
2023/01/01 04:45:18;;;;;;;25.88;13.52;;;;;;;11.38;100.00;102552.66;2102112;28;20129;-81
2023/01/01 04:46:41;;;;;;;31.13;17.33;;;;;;;11.34;100.00;102556.03;2086660;28;20100;-81
2023/01/01 04:48:04;;;;;;;28.08;15.18;;;;;;;11.31;100.00;102560.28;2096475;28;20060;-83
2023/01/01 04:49:26;;;;;;;24.15;13.65;;;;;;;11.26;100.00;102557.47;2103378;28;20040;-81
2023/01/01 04:50:54;;;;;;;20.88;13.93;;;;;;;11.22;100.00;102554.63;2101845;28;20047;-80
2023/01/01 04:52:16;;;;;;;25.15;14.23;;;;;;;11.17;100.00;102565.00;2090242;28;20081;-81
2023/01/01 04:53:38;;;;;;;21.52;13.45;;;;;;;11.14;100.00;102560.50;2086778;28;20056;-80
2023/01/01 04:55:00;;;;;;;23.50;13.25;;;;;;;11.13;100.00;102563.97;2095653;28;20044;-80
2023/01/01 04:56:23;;;;;;;27.30;13.73;;;;;;;11.13;100.00;102563.97;2099620;28;20145;-80
2023/01/01 04:57:44;;;;;;;23.95;13.80;;;;;;;11.12;100.00;102574.47;2104468;28;20075;-80
2023/01/01 04:59:07;;;;;;;24.52;14.05;;;;;;;11.11;100.00;102573.56;2105358;28;20047;-80
2023/01/01 05:00:30;;;;;;;26.08;13.75;;;;;;;11.11;100.00;102580.59;2107071;28;20510;-80
2023/01/01 05:01:52;;;;;;;22.77;13.98;;;;;;;11.10;100.00;102576.13;2096264;28;20041;-80
2023/01/01 05:03:13;;;;;;;23.40;13.10;;;;;;;11.08;100.00;102572.56;2093620;28;20496;-79
2023/01/01 05:04:36;;;;;;;24.38;13.25;;;;;;;11.06;100.00;102580.41;2094659;28;20128;-79
2023/01/01 05:06:01;;;;;;;21.30;12.50;;;;;;;11.04;100.00;102575.88;2093657;28;20103;-80
2023/01/01 05:07:24;;;;;;;20.98;12.40;;;;;;;11.02;100.00;102570.56;2096072;28;20611;-79
2023/01/01 05:08:49;;;;;;;21.17;12.77;;;;;;;11.03;100.00;102587.28;2102943;28;20036;-80
2023/01/01 05:10:11;;;;;;;19.92;12.00;;;;;;;11.00;100.00;102573.97;2088236;28;20091;-80
2023/01/01 05:11:32;;;;;;;30.83;16.05;;;;;;;10.98;100.00;102576.53;2101802;28;20040;-79
2023/01/01 05:12:55;;;;;;;25.75;14.43;;;;;;;10.97;100.00;102574.72;2101347;28;20056;-79
2023/01/01 05:14:17;;;;;;;25.08;14.32;;;;;;;10.97;100.00;102580.00;2078688;28;20421;-79
2023/01/01 05:15:40;;;;;;;24.17;14.55;;;;;;;10.96;100.00;102578.19;2096426;28;20052;-79
2023/01/01 05:17:02;;;;;;;24.38;13.45;;;;;;;10.97;100.00;102576.44;2089024;28;20421;-79
2023/01/01 05:18:23;;;;;;;23.85;12.73;;;;;;;10.97;100.00;102585.28;2092733;28;20128;-80
2023/01/01 05:19:45;;;;;;;19.77;12.63;;;;;;;10.98;100.00;102578.25;2091193;28;20148;-80
2023/01/01 05:21:09;;;;;;;25.95;13.43;;;;;;;11.02;100.00;102588.16;2089058;28;20145;-80
2023/01/01 05:22:32;;;;;;;23.73;13.15;;;;;;;11.02;100.00;102581.13;2098321;28;20044;-80
2023/01/01 05:23:54;;;;;;;23.45;13.95;;;;;;;11.03;100.00;102580.25;2096939;28;20040;-79
2023/01/01 05:25:17;;;;;;;21.67;12.90;;;;;;;11.03;100.00;102582.91;2106584;28;20081;-80
2023/01/01 05:26:41;;;;;;;23.25;12.95;;;;;;;11.02;100.00;102580.22;2100945;28;20048;-80
2023/01/01 05:28:03;;;;;;;21.30;12.20;;;;;;;11.00;100.00;102585.44;2102413;28;20047;-80
2023/01/01 05:29:25;;;;;;;21.92;12.75;;;;;;;10.99;100.00;102577.44;2094843;28;20563;-80
2023/01/01 05:30:48;;;;;;;22.17;12.98;;;;;;;11.01;100.00;102581.97;2088340;28;20044;-79
2023/01/01 05:32:11;;;;;;;22.85;13.60;;;;;;;11.02;100.00;102583.78;2086386;28;20106;-80
2023/01/01 05:33:36;;;;;;;24.35;13.85;;;;;;;11.03;100.00;102577.63;2104250;28;20047;-80
2023/01/01 05:34:59;;;;;;;21.85;12.50;;;;;;;11.05;100.00;102580.34;2096897;28;20045;-80
2023/01/01 05:36:24;;;;;;;24.67;13.25;;;;;;;11.08;100.00;102584.03;2094323;28;20546;-80
2023/01/01 05:37:46;;;;;;;24.70;13.40;;;;;;;11.10;100.00;102584.06;2097276;28;20079;-79
2023/01/01 05:39:10;;;;;;;22.25;13.70;;;;;;;11.10;100.00;102586.72;2104902;28;20152;-79
2023/01/01 05:40:32;;;;;;;21.30;13.18;;;;;;;11.08;100.00;102591.06;2108579;28;20048;-80
2023/01/01 05:41:54;;;;;;;22.85;12.98;;;;;;;11.07;100.00;102587.50;2103033;28;20047;-79
2023/01/01 05:43:15;;;;;;;22.80;12.18;;;;;;;11.11;100.00;102588.53;2100018;28;20064;-80
2023/01/01 05:44:38;;;;;;;21.83;13.13;;;;;;;11.12;100.00;102585.94;2093978;28;20045;-79
2023/01/01 05:46:02;;;;;;;22.67;12.65;;;;;;;11.17;100.00;102575.56;2088238;28;20041;-80
2023/01/01 05:47:24;;;;;;;18.90;12.80;;;;;;;11.22;100.00;102583.72;2088806;28;20045;-79
2023/01/01 05:48:46;;;;;;;20.88;12.13;;;;;;;11.27;100.00;102580.41;2100250;28;20623;-80
2023/01/01 05:50:09;;;;;;;22.63;13.38;;;;;;;11.31;100.00;102579.69;2096970;28;20377;-79
2023/01/01 05:51:32;;;;;;;20.92;12.20;;;;;;;11.36;100.00;102571.94;2085535;28;20697;-79
2023/01/01 05:52:53;;;;;;;19.13;12.23;;;;;;;11.38;100.00;102568.53;2094330;28;20049;-79
2023/01/01 05:54:15;;;;;;;18.75;12.55;;;;;;;11.40;100.00;102572.16;2102621;28;20048;-79
2023/01/01 05:55:36;;;;;;;19.17;12.13;;;;;;;11.43;100.00;102571.34;2089963;28;20040;-79
2023/01/01 05:56:59;;;;;;;17.15;11.55;;;;;;;11.44;100.00;102570.53;2102533;28;20052;-79
2023/01/01 05:58:20;;;;;;;19.30;12.00;;;;;;;11.46;100.00;102576.78;2091997;28;20392;-79
2023/01/01 05:59:43;;;;;;;18.15;11.57;;;;;;;11.46;100.00;102574.16;2099211;28;20634;-79
2023/01/01 06:01:11;;;;;;;17.45;11.93;;;;;;;11.51;100.00;102576.13;2091453;28;20051;-79
2023/01/01 06:02:34;;;;;;;17.73;11.60;;;;;;;11.52;100.00;102572.66;2085023;28;20045;-79
2023/01/01 06:03:57;;;;;;;15.93;11.55;;;;;;;11.56;100.00;102574.56;2107258;28;20052;-79
2023/01/01 06:05:19;;;;;;;17.17;11.18;;;;;;;11.59;100.00;102569.41;2096423;28;20519;-79
2023/01/01 06:06:41;;;;;;;;;;;;;;;11.61;100.00;102574.78;2111214;28;20100;-79
2023/01/01 06:08:04;;;;;;;19.55;11.75;;;;;;;11.66;100.00;102569.66;2096312;28;19931;-79
2023/01/01 06:09:27;;;;;;;14.85;11.07;;;;;;;11.72;100.00;102560.22;2099524;28;20052;-79
2023/01/01 06:10:49;;;;;;;16.02;10.93;;;;;;;11.78;100.00;102575.47;2100166;28;20370;-79
2023/01/01 06:12:11;;;;;;;16.70;11.50;;;;;;;11.83;100.00;102569.53;2085465;28;20764;-79
2023/01/01 06:13:33;;;;;;;18.73;11.48;;;;;;;11.85;100.00;102578.44;2098260;28;20051;-79
2023/01/01 06:14:55;;;;;;;21.00;12.20;;;;;;;11.88;100.00;102573.25;2095824;28;20083;-79
2023/01/01 06:16:19;;;;;;;17.40;11.90;;;;;;;11.94;100.00;102575.25;2098084;28;20052;-79
2023/01/01 06:17:41;;;;;;;17.48;11.63;;;;;;;11.98;100.00;102580.72;2099748;28;20044;-77
2023/01/01 06:19:04;;;;;;;17.70;11.90;;;;;;;12.03;100.00;102580.88;2099470;28;20531;-76
2023/01/01 06:20:25;;;;;;;17.38;12.23;;;;;;;12.08;100.00;102583.72;2100551;28;20046;-77
2023/01/01 06:21:48;;;;;;;17.60;11.00;;;;;;;12.12;100.00;102588.28;2088224;28;20080;-76
2023/01/01 06:23:11;;;;;;;21.23;14.73;;;;;;;12.13;100.00;102591.00;2098685;28;20313;-76